Аэропорт: Алыкель. Норильск

ICAO: UOOO

METAR:
2019/01/21 23:00
UOOO 212300Z 07005MPS 9999 DRSN NSC M16/M19 Q1014 R01/39//38 NOSIG RMK QFE746/0995
METAR:
2019/01/21 21:24
TAF COR UOOO 212003Z 2121/2221 12005G11MPS 3100 DRSN HZ SCT015 
      TEMPO 2121/2207 1000 BLSN SCT004 
     FM220700 15009G14MPS 2500 -SHSN BLSN BKN010CB 
      TEMPO 2207/2221 1000 BLSN SCT004